Time;durP1;ratioP1;P1;durP2;ratioP2;P2;SDS_P1;SDS_P2;PMS_P1;PMS_P2;Temp;Humidity;BMP_temperature;BMP_pressure;BME280_temperature;BME280_humidity;BME280_pressure;Samples;Min_cycle;Max_cycle;Signal;HPM_P1;HPM_P2
2021/03/11 00:00:54;;;;;;;7.80;1.92;;;23.00;99.90;;;;;;6304573;22;20057;-64
2021/03/11 00:03:24;;;;;;;6.88;1.95;;;22.90;99.90;;;;;;6306175;22;20524;-63
2021/03/11 00:05:51;;;;;;;8.07;1.85;;;22.80;99.90;;;;;;6305930;22;20109;-64
2021/03/11 00:08:18;;;;;;;7.32;1.70;;;22.80;99.90;;;;;;6307457;22;20011;-64
2021/03/11 00:10:46;;;;;;;6.10;1.92;;;22.60;99.90;;;;;;6307059;22;20440;-63
2021/03/11 00:13:13;;;;;;;9.40;2.10;;;22.60;99.90;;;;;;6306113;22;20018;-62
2021/03/11 00:15:42;;;;;;;7.07;1.45;;;22.60;99.90;;;;;;6306412;22;20102;-65
2021/03/11 00:18:11;;;;;;;7.95;1.95;;;22.60;99.90;;;;;;6302609;22;19999;-66
2021/03/11 00:20:38;;;;;;;10.43;1.92;;;22.60;99.90;;;;;;6303778;22;20006;-65
2021/03/11 00:23:06;;;;;;;6.88;1.67;;;22.60;99.90;;;;;;6303338;22;20321;-65
2021/03/11 00:25:34;;;;;;;5.25;1.77;;;22.70;99.90;;;;;;6329600;22;20353;-65
2021/03/11 00:28:03;;;;;;;10.30;2.08;;;22.70;99.90;;;;;;6305796;22;20008;-65
2021/03/11 00:30:30;;;;;;;15.73;3.22;;;22.80;99.90;;;;;;6306498;22;20546;-65
2021/03/11 00:32:59;;;;;;;8.77;1.42;;;23.00;99.90;;;;;;6306537;22;20011;-65
2021/03/11 00:35:26;;;;;;;10.20;1.60;;;23.20;99.90;;;;;;6306230;22;19995;-65
2021/03/11 00:37:53;;;;;;;9.38;2.38;;;23.30;99.90;;;;;;6330894;22;20004;-65
2021/03/11 00:40:22;;;;;;;7.60;1.42;;;23.50;99.90;;;;;;6306374;22;20013;-65
2021/03/11 00:42:50;;;;;;;9.88;2.20;;;23.50;99.90;;;;;;6305764;22;20002;-64
2021/03/11 00:45:18;;;;;;;6.80;1.02;;;23.50;99.90;;;;;;6305602;22;20010;-65
2021/03/11 00:47:45;;;;;;;9.18;2.10;;;23.50;99.90;;;;;;6306017;22;19999;-64
2021/03/11 00:50:16;;;;;;;8.23;1.63;;;23.80;99.90;;;;;;6305394;22;20133;-64
2021/03/11 00:52:44;;;;;;;8.05;1.23;;;24.10;99.90;;;;;;6305001;22;20014;-64
2021/03/11 00:55:13;;;;;;;6.18;1.52;;;24.70;99.90;;;;;;6306882;22;20014;-64
2021/03/11 00:57:41;;;;;;;9.60;1.73;;;24.70;99.90;;;;;;6306158;22;20006;-64
2021/03/11 01:00:11;;;;;;;6.05;1.63;;;25.20;99.90;;;;;;6306332;22;19999;-64
2021/03/11 01:02:39;;;;;;;6.30;1.50;;;25.20;99.90;;;;;;6305579;22;20007;-64
2021/03/11 01:05:07;;;;;;;6.07;0.93;;;25.30;99.90;;;;;;6305498;22;20487;-63
2021/03/11 01:07:34;;;;;;;6.22;1.70;;;25.40;99.90;;;;;;6305967;22;19995;-64
2021/03/11 01:10:03;;;;;;;7.13;1.40;;;25.10;99.90;;;;;;6306922;22;20345;-64
2021/03/11 01:12:30;;;;;;;9.70;1.50;;;25.20;99.90;;;;;;6306432;22;20318;-63
2021/03/11 01:14:57;;;;;;;7.53;1.27;;;25.70;99.90;;;;;;6306298;22;19999;-63
2021/03/11 01:17:25;;;;;;;6.88;2.17;;;25.80;99.90;;;;;;6306482;22;20003;-65
2021/03/11 01:19:52;;;;;;;10.93;1.60;;;25.90;99.90;;;;;;6305661;22;20046;-64
2021/03/11 01:22:19;;;;;;;5.72;1.42;;;26.40;99.90;;;;;;6305634;22;19999;-65
2021/03/11 01:24:46;;;;;;;7.38;1.10;;;26.00;99.90;;;;;;6329716;22;20430;-65
2021/03/11 01:27:14;;;;;;;4.82;1.17;;;25.60;99.90;;;;;;6305428;22;20422;-64
2021/03/11 01:29:41;;;;;;;4.80;1.17;;;25.60;99.90;;;;;;6303092;22;20006;-64
2021/03/11 01:32:08;;;;;;;7.35;1.85;;;25.40;99.90;;;;;;6305696;22;20008;-65
2021/03/11 01:34:36;;;;;;;6.18;1.52;;;25.50;99.90;;;;;;6306065;22;20003;-64
2021/03/11 01:37:03;;;;;;;5.10;1.10;;;26.00;99.90;;;;;;6305709;22;20079;-64
2021/03/11 01:39:30;;;;;;;9.00;2.03;;;26.70;99.90;;;;;;6305050;22;19996;-64
2021/03/11 01:41:58;;;;;;;4.30;1.10;;;27.00;99.90;;;;;;6303962;22;20000;-64
2021/03/11 01:44:25;;;;;;;7.13;1.20;;;26.90;99.90;;;;;;6306842;22;20003;-63
2021/03/11 01:46:52;;;;;;;6.82;1.35;;;26.40;99.90;;;;;;6305940;22;20078;-64
2021/03/11 01:49:19;;;;;;;6.95;1.60;;;25.80;99.90;;;;;;6306114;22;20003;-64
2021/03/11 01:51:48;;;;;;;7.25;1.38;;;25.60;99.90;;;;;;6306453;22;19999;-64
2021/03/11 01:54:17;;;;;;;7.20;1.15;;;25.40;99.90;;;;;;6332405;22;20015;-64
2021/03/11 01:56:44;;;;;;;8.70;1.67;;;25.60;99.90;;;;;;6336490;22;20022;-65
2021/03/11 01:59:12;;;;;;;8.40;1.08;;;25.90;99.90;;;;;;6338686;22;19999;-63
2021/03/11 02:01:43;;;;;;;9.32;1.67;;;25.70;99.90;;;;;;6339583;22;20334;-64
2021/03/11 02:04:10;;;;;;;5.28;1.55;;;25.40;99.90;;;;;;6339596;22;20679;-63
2021/03/11 02:06:37;;;;;;;6.47;1.52;;;25.70;99.90;;;;;;6339017;22;20002;-63
2021/03/11 02:09:06;;;;;;;7.45;1.40;;;26.00;99.90;;;;;;6337965;22;20010;-64
2021/03/11 02:11:35;;;;;;;10.60;1.35;;;26.30;99.90;;;;;;6339827;22;20007;-66
2021/03/11 02:14:34;;;;;;;4.20;1.05;;;26.00;99.90;;;;;;6339731;22;20384;-66
2021/03/11 02:17:03;;;;;;;8.35;1.70;;;25.80;99.90;;;;;;6338859;22;19999;-64
2021/03/11 02:19:52;;;;;;;9.13;1.70;;;26.00;99.90;;;;;;6339617;22;20067;-65
2021/03/11 02:22:37;;;;;;;6.88;1.60;;;26.90;99.90;;;;;;6340185;22;20003;-64
2021/03/11 02:25:49;;;;;;;4.35;1.00;;;27.30;99.90;;;;;;6331451;22;20066;-65
2021/03/11 02:28:31;;;;;;;8.18;1.80;;;27.30;99.90;;;;;;6243155;23;20331;-64
2021/03/11 02:30:59;;;;;;;7.60;1.35;;;26.50;99.90;;;;;;6301700;22;20011;-64
2021/03/11 02:33:30;;;;;;;10.05;2.03;;;26.50;99.90;;;;;;6309229;22;20031;-65
2021/03/11 02:35:59;;;;;;;4.88;1.35;;;26.90;99.90;;;;;;6307768;22;20003;-65
2021/03/11 02:38:29;;;;;;;7.53;1.27;;;26.50;99.90;;;;;;6309008;22;20052;-65
2021/03/11 02:41:00;;;;;;;5.40;1.05;;;26.60;99.90;;;;;;6308760;22;19999;-64
2021/03/11 02:43:29;;;;;;;7.68;1.42;;;26.10;99.90;;;;;;6307779;22;20007;-64
2021/03/11 02:45:57;;;;;;;5.85;1.10;;;25.90;99.90;;;;;;6314408;22;19999;-64
2021/03/11 02:48:25;;;;;;;9.88;1.60;;;25.70;99.90;;;;;;6318768;22;20096;-64
2021/03/11 02:50:54;;;;;;;7.22;1.30;;;25.70;99.90;;;;;;6319642;22;20067;-64
2021/03/11 02:53:22;;;;;;;5.35;1.00;;;25.60;99.90;;;;;;6319858;22;20059;-64
2021/03/11 02:55:49;;;;;;;9.93;1.65;;;25.40;99.90;;;;;;6318208;22;20003;-64
2021/03/11 02:58:18;;;;;;;7.30;1.40;;;25.40;99.90;;;;;;6319823;22;20401;-65
2021/03/11 03:00:46;;;;;;;7.22;2.03;;;25.40;99.90;;;;;;6317651;22;20043;-64
2021/03/11 03:03:14;;;;;;;6.93;1.63;;;25.20;99.90;;;;;;6317247;22;20115;-64
2021/03/11 03:05:41;;;;;;;9.07;1.90;;;24.90;99.90;;;;;;6317262;22;20019;-63
2021/03/11 03:08:10;;;;;;;7.72;1.65;;;24.90;99.90;;;;;;6304691;22;20052;-65
2021/03/11 03:10:39;;;;;;;8.15;1.52;;;25.00;99.90;;;;;;6330912;22;20034;-65
2021/03/11 03:13:13;;;;;;;6.28;1.75;;;25.00;99.90;;;;;;6305788;22;20488;-65
2021/03/11 03:15:41;;;;;;;6.82;1.40;;;25.00;99.90;;;;;;6305203;22;19995;-63
2021/03/11 03:18:15;;;;;;;4.53;1.10;;;25.00;99.90;;;;;;6307112;22;20382;-64
2021/03/11 03:20:47;;;;;;;6.70;1.52;;;24.80;99.90;;;;;;6306533;22;19995;-63
2021/03/11 03:23:15;;;;;;;6.28;1.75;;;24.80;99.90;;;;;;6306116;22;20003;-64
2021/03/11 03:25:46;;;;;;;9.63;1.83;;;24.80;99.90;;;;;;6307520;22;20010;-64
2021/03/11 03:28:13;;;;;;;9.52;1.80;;;24.60;99.90;;;;;;6310250;22;19995;-63
2021/03/11 03:30:41;;;;;;;5.70;1.35;;;24.40;99.90;;;;;;6310328;22;20090;-64
2021/03/11 03:33:09;;;;;;;9.85;1.85;;;24.40;99.90;;;;;;6307417;22;19996;-64
2021/03/11 03:35:37;;;;;;;9.82;1.80;;;24.40;99.90;;;;;;6308902;22;20000;-64
2021/03/11 03:38:04;;;;;;;7.50;1.73;;;24.40;99.90;;;;;;6307401;22;20003;-65
2021/03/11 03:40:32;;;;;;;6.78;1.52;;;24.40;99.90;;;;;;6308718;22;20022;-65
2021/03/11 03:43:23;;;;;;;6.90;1.17;;;24.40;99.90;;;;;;6307919;22;20020;-64
2021/03/11 03:46:05;;;;;;;11.55;1.13;;;24.20;99.90;;;;;;6308402;22;20422;-64
2021/03/11 03:48:59;;;;;;;9.85;1.67;;;24.20;99.90;;;;;;6307495;22;20047;-65
2021/03/11 03:51:28;;;;;;;7.22;1.40;;;24.10;99.90;;;;;;6299675;22;20018;-64
2021/03/11 03:54:06;;;;;;;9.13;1.88;;;24.20;99.90;;;;;;6332724;22;20042;-66
2021/03/11 03:56:42;;;;;;;10.13;1.83;;;24.20;99.90;;;;;;6307314;22;19995;-65
2021/03/11 03:59:25;;;;;;;11.48;2.28;;;24.10;99.90;;;;;;6331877;22;20007;-65
2021/03/11 04:01:59;;;;;;;7.53;1.67;;;24.20;99.90;;;;;;6307385;22;20440;-65
2021/03/11 04:04:32;;;;;;;7.68;1.58;;;24.30;99.90;;;;;;6308751;22;19995;-63
2021/03/11 04:07:01;;;;;;;7.88;1.70;;;24.30;99.90;;;;;;6334448;22;20410;-65
2021/03/11 04:09:30;;;;;;;7.75;1.30;;;24.40;99.90;;;;;;6331273;22;20003;-64
2021/03/11 04:11:58;;;;;;;11.05;1.40;;;24.40;99.90;;;;;;6307375;22;20450;-65
2021/03/11 04:14:27;;;;;;;7.85;1.10;;;24.30;99.90;;;;;;6307910;22;19999;-64
2021/03/11 04:16:55;;;;;;;7.57;1.63;;;24.30;99.90;;;;;;6308081;22;20310;-65
2021/03/11 04:19:24;;;;;;;9.00;1.40;;;24.40;99.90;;;;;;6307975;22;20010;-64
2021/03/11 04:21:52;;;;;;;13.55;2.78;;;24.40;99.90;;;;;;6307447;22;20299;-63
2021/03/11 04:24:21;;;;;;;14.85;1.80;;;24.40;99.90;;;;;;6308520;22;20421;-65
2021/03/11 04:26:48;;;;;;;9.98;2.08;;;24.40;99.90;;;;;;6307246;22;20010;-64
2021/03/11 04:29:16;;;;;;;6.78;1.85;;;24.40;99.90;;;;;;6333378;22;20014;-65
2021/03/11 04:31:44;;;;;;;5.70;1.00;;;24.30;99.90;;;;;;6306080;22;20007;-65
2021/03/11 04:34:11;;;;;;;8.02;1.42;;;24.20;99.90;;;;;;6303891;22;20017;-66
2021/03/11 04:36:39;;;;;;;5.47;1.15;;;24.20;99.90;;;;;;6328290;22;20031;-65
2021/03/11 04:39:07;;;;;;;9.65;1.42;;;24.20;99.90;;;;;;6306006;22;20003;-65
2021/03/11 04:41:35;;;;;;;9.52;1.90;;;24.30;99.90;;;;;;6304887;22;20417;-65
2021/03/11 04:44:04;;;;;;;8.30;2.00;;;24.30;99.90;;;;;;6302963;22;20325;-65
2021/03/11 04:46:32;;;;;;;5.90;1.88;;;24.30;99.90;;;;;;6303809;22;20442;-64
2021/03/11 04:49:02;;;;;;;8.55;1.88;;;24.30;99.90;;;;;;6303695;22;20010;-64
2021/03/11 04:51:30;;;;;;;9.80;1.45;;;24.50;99.90;;;;;;6303627;22;20348;-64
2021/03/11 04:53:58;;;;;;;8.18;1.42;;;24.50;99.90;;;;;;6303764;22;20098;-64
2021/03/11 04:56:27;;;;;;;7.78;1.40;;;24.40;99.90;;;;;;6303942;22;20017;-65
2021/03/11 04:58:55;;;;;;;7.47;1.90;;;24.50;99.90;;;;;;6305593;22;20078;-64
2021/03/11 05:01:29;;;;;;;6.57;1.50;;;24.60;99.90;;;;;;6305369;22;20071;-65
2021/03/11 05:04:01;;;;;;;10.52;1.73;;;24.60;99.90;;;;;;6329339;22;19999;-65
2021/03/11 05:06:28;;;;;;;7.10;1.23;;;24.50;99.90;;;;;;6305022;22;19999;-65
2021/03/11 05:08:55;;;;;;;6.50;1.77;;;24.50;99.90;;;;;;6305453;22;20022;-65
2021/03/11 05:11:23;;;;;;;12.52;1.55;;;24.50;99.90;;;;;;6305442;22;20003;-65
2021/03/11 05:13:50;;;;;;;14.07;2.78;;;24.40;99.90;;;;;;6305705;22;20000;-65
2021/03/11 05:16:17;;;;;;;9.50;1.67;;;24.40;99.90;;;;;;6303733;22;20521;-63
2021/03/11 05:18:44;;;;;;;10.25;2.10;;;24.50;99.90;;;;;;6306279;22;20038;-64
2021/03/11 05:21:13;;;;;;;4.63;1.02;;;24.50;99.90;;;;;;6306020;22;20064;-66
2021/03/11 05:23:40;;;;;;;12.73;3.40;;;24.50;99.90;;;;;;6306423;22;20350;-64
2021/03/11 05:26:07;;;;;;;8.07;1.63;;;24.40;99.90;;;;;;6305531;22;20007;-65
2021/03/11 05:28:35;;;;;;;7.63;1.52;;;24.40;99.90;;;;;;6305803;22;20003;-64
2021/03/11 05:31:02;;;;;;;7.63;1.45;;;24.40;99.90;;;;;;6305814;22;20027;-64
2021/03/11 05:33:29;;;;;;;7.28;1.60;;;24.40;99.90;;;;;;6307512;22;20003;-65
2021/03/11 05:35:56;;;;;;;10.20;1.40;;;24.40;99.90;;;;;;6308348;22;20083;-65
2021/03/11 05:38:24;;;;;;;6.32;1.75;;;24.30;99.90;;;;;;6309023;22;20004;-65
2021/03/11 05:40:55;;;;;;;12.25;1.90;;;24.20;99.90;;;;;;6308616;22;20018;-64
2021/03/11 05:43:22;;;;;;;10.20;1.95;;;24.10;99.90;;;;;;6310470;22;20031;-65
2021/03/11 05:45:50;;;;;;;8.60;2.05;;;24.10;99.90;;;;;;6309516;22;19999;-64
2021/03/11 05:48:20;;;;;;;10.60;2.55;;;24.10;99.90;;;;;;6310475;22;20002;-63
2021/03/11 05:50:51;;;;;;;12.23;2.28;;;24.00;99.90;;;;;;6308871;22;20399;-64
2021/03/11 05:53:19;;;;;;;9.20;1.70;;;23.90;99.90;;;;;;6310727;22;20457;-65
2021/03/11 05:55:46;;;;;;;10.93;1.60;;;23.90;99.90;;;;;;6310968;22;20064;-64
2021/03/11 05:58:18;;;;;;;11.65;1.70;;;23.80;99.90;;;;;;6310589;22;20337;-65
2021/03/11 06:00:45;;;;;;;8.20;1.83;;;23.80;99.90;;;;;;6309475;22;19995;-64
2021/03/11 06:03:12;;;;;;;8.63;1.58;;;23.80;99.90;;;;;;6311729;22;20417;-65
2021/03/11 06:05:40;;;;;;;6.07;1.80;;;23.80;99.90;;;;;;6309507;22;20010;-64
2021/03/11 06:08:09;;;;;;;10.52;2.03;;;23.90;99.90;;;;;;6309454;22;20064;-64
2021/03/11 06:10:39;;;;;;;12.88;2.85;;;23.90;99.90;;;;;;6309164;22;20014;-64
2021/03/11 06:13:08;;;;;;;10.57;2.53;;;23.80;99.90;;;;;;6308515;22;20372;-64
2021/03/11 06:15:41;;;;;;;13.88;2.20;;;23.80;99.90;;;;;;6308612;22;20487;-65
2021/03/11 06:18:10;;;;;;;14.05;1.77;;;23.70;99.90;;;;;;6309453;22;20015;-64
2021/03/11 06:20:38;;;;;;;12.82;2.42;;;23.70;99.90;;;;;;6308668;22;20000;-64
2021/03/11 06:23:05;;;;;;;7.70;2.05;;;23.60;99.90;;;;;;6333991;22;20090;-64
2021/03/11 06:25:35;;;;;;;22.55;2.70;;;23.60;99.90;;;;;;6310365;22;19995;-64
2021/03/11 06:28:02;;;;;;;7.25;1.83;;;23.60;99.90;;;;;;6307987;22;20030;-64
2021/03/11 06:30:33;;;;;;;8.85;1.88;;;23.60;99.90;;;;;;6309118;22;20334;-66
2021/03/11 06:33:02;;;;;;;9.23;3.53;;;23.60;99.90;;;;;;6306508;22;20077;-65
2021/03/11 06:35:30;;;;;;;9.68;2.17;;;23.60;99.90;;;;;;6306612;22;19999;-65
2021/03/11 06:37:57;;;;;;;12.27;2.33;;;23.60;99.90;;;;;;6308185;22;20026;-65
2021/03/11 06:40:27;;;;;;;15.82;2.38;;;23.60;99.90;;;;;;6310026;22;20003;-64
2021/03/11 06:43:12;;;;;;;13.30;3.00;;;23.60;99.90;;;;;;6308587;22;20075;-64
2021/03/11 06:45:40;;;;;;;15.02;1.90;;;23.60;99.90;;;;;;6333534;22;20003;-64
2021/03/11 06:48:29;;;;;;;15.32;1.90;;;23.60;99.90;;;;;;6308582;22;20011;-63
2021/03/11 06:51:01;;;;;;;8.68;1.70;;;23.60;99.90;;;;;;6306774;22;20011;-65
2021/03/11 06:53:30;;;;;;;13.00;2.53;;;23.60;99.90;;;;;;6309382;22;20482;-65
2021/03/11 06:56:18;;;;;;;13.60;2.25;;;23.50;99.90;;;;;;6308345;22;19995;-64
2021/03/11 06:59:02;;;;;;;11.40;3.08;;;23.60;99.90;;;;;;6308101;22;20018;-66
2021/03/11 07:01:32;;;;;;;14.45;3.83;;;23.50;99.90;;;;;;6307532;22;20023;-63
2021/03/11 07:04:03;;;;;;;14.77;2.90;;;23.50;99.90;;;;;;6308850;22;19999;-64
2021/03/11 07:06:38;;;;;;;10.48;2.28;;;23.50;99.90;;;;;;6308396;22;19999;-64
2021/03/11 07:09:07;;;;;;;17.40;2.58;;;23.50;99.90;;;;;;6333429;22;20007;-65
2021/03/11 07:11:35;;;;;;;15.50;3.42;;;23.50;99.90;;;;;;6308886;22;20051;-64
2021/03/11 07:14:04;;;;;;;13.05;2.72;;;23.60;99.90;;;;;;6308889;22;20006;-65
2021/03/11 07:16:34;;;;;;;11.75;2.33;;;23.60;99.90;;;;;;6308972;22;19999;-64
2021/03/11 07:19:18;;;;;;;18.27;3.05;;;23.50;99.90;;;;;;6309570;22;20056;-65
2021/03/11 07:21:55;;;;;;;12.80;3.08;;;23.50;99.90;;;;;;6308937;22;20002;-65
2021/03/11 07:24:51;;;;;;;11.00;2.00;;;23.50;99.90;;;;;;6309937;22;20026;-64
2021/03/11 07:27:19;;;;;;;12.60;2.30;;;23.40;99.90;;;;;;6296840;22;20015;-63
2021/03/11 07:30:04;;;;;;;13.88;1.98;;;23.40;99.90;;;;;;6309308;22;20007;-65
2021/03/11 07:32:35;;;;;;;12.05;2.50;;;23.40;99.90;;;;;;6332660;22;20003;-65
2021/03/11 07:35:05;;;;;;;11.95;2.78;;;23.40;99.90;;;;;;6309719;22;20003;-64
2021/03/11 07:37:35;;;;;;;9.50;1.77;;;23.40;99.90;;;;;;6308804;22;19999;-65
2021/03/11 07:40:03;;;;;;;16.60;2.75;;;23.40;99.90;;;;;;6333751;22;20030;-64
2021/03/11 07:42:31;;;;;;;10.93;2.22;;;23.40;99.90;;;;;;6308586;22;20333;-64
2021/03/11 07:44:58;;;;;;;17.02;2.65;;;23.30;99.90;;;;;;6309654;22;19999;-65
2021/03/11 07:47:26;;;;;;;16.25;4.05;;;23.30;99.90;;;;;;6308803;22;20002;-65
2021/03/11 07:49:54;;;;;;;20.38;4.30;;;23.30;99.90;;;;;;6309770;22;20055;-65
2021/03/11 07:52:21;;;;;;;13.32;2.33;;;23.20;99.90;;;;;;6330998;22;20014;-65
2021/03/11 07:54:49;;;;;;;18.25;2.83;;;23.30;99.90;;;;;;6338881;22;20098;-65
2021/03/11 07:57:17;;;;;;;12.32;3.00;;;23.30;99.90;;;;;;6334663;22;20016;-65
2021/03/11 07:59:47;;;;;;;10.88;1.92;;;23.30;99.90;;;;;;6339110;22;19995;-66
2021/03/11 08:02:17;;;;;;;17.13;2.25;;;23.30;99.90;;;;;;6339691;22;20329;-64
2021/03/11 08:04:46;;;;;;;14.43;2.15;;;23.30;99.90;;;;;;6337605;22;20007;-64
2021/03/11 08:07:17;;;;;;;12.30;2.20;;;23.30;99.90;;;;;;6338612;22;19998;-65
2021/03/11 08:09:45;;;;;;;17.25;2.50;;;23.30;99.90;;;;;;6339279;22;20098;-65
2021/03/11 08:12:40;;;;;;;9.90;2.35;;;23.30;99.90;;;;;;6339862;22;20022;-64
2021/03/11 08:15:16;;;;;;;8.02;2.00;;;23.20;99.90;;;;;;6336933;22;20113;-65
2021/03/11 08:17:48;;;;;;;13.43;2.35;;;23.20;99.90;;;;;;6339330;22;20107;-65
2021/03/11 08:20:24;;;;;;;14.50;1.95;;;23.20;99.90;;;;;;6339427;22;20488;-65
2021/03/11 08:22:52;;;;;;;11.85;2.13;;;23.20;99.90;;;;;;6340194;22;20006;-65
2021/03/11 08:25:41;;;;;;;12.68;2.05;;;23.20;99.90;;;;;;6329956;22;19995;-65
2021/03/11 08:28:11;;;;;;;10.52;2.08;;;23.20;99.90;;;;;;6308822;22;20048;-64
2021/03/11 08:30:41;;;;;;;9.73;1.65;;;23.20;99.90;;;;;;6308867;22;20027;-65
2021/03/11 08:33:13;;;;;;;11.30;1.58;;;23.30;99.90;;;;;;6308288;22;20429;-64
2021/03/11 08:35:51;;;;;;;14.25;2.97;;;23.20;99.90;;;;;;6308697;22;20003;-64
2021/03/11 08:38:21;;;;;;;14.05;2.10;;;23.30;99.90;;;;;;6308399;22;20471;-64
2021/03/11 08:41:10;;;;;;;13.63;2.10;;;23.30;99.90;;;;;;6308075;22;20448;-64
2021/03/11 08:43:38;;;;;;;12.68;2.88;;;23.20;99.90;;;;;;6309407;22;20077;-63
2021/03/11 08:46:17;;;;;;;10.98;2.63;;;23.00;99.90;;;;;;6308532;22;20045;-63
2021/03/11 08:49:00;;;;;;;9.50;2.20;;;22.90;99.90;;;;;;6308857;22;20006;-64
2021/03/11 08:51:27;;;;;;;10.80;2.35;;;22.90;99.90;;;;;;6306864;22;20472;-66
2021/03/11 08:53:56;;;;;;;12.48;2.13;;;22.80;99.90;;;;;;6307385;22;19999;-64
2021/03/11 08:56:23;;;;;;;11.43;3.00;;;22.80;99.90;;;;;;6308886;22;20000;-64
2021/03/11 08:59:02;;;;;;;11.90;2.35;;;22.80;99.90;;;;;;6308533;22;20413;-65
2021/03/11 09:01:55;;;;;;;11.60;3.15;;;22.80;99.90;;;;;;6310122;22;20279;-64
2021/03/11 09:04:31;;;;;;;11.73;2.08;;;22.80;99.90;;;;;;6309967;22;20000;-64
2021/03/11 09:06:58;;;;;;;11.65;2.00;;;22.80;99.90;;;;;;6308438;22;19996;-65
2021/03/11 09:09:38;;;;;;;9.15;2.35;;;22.80;99.90;;;;;;6307058;22;20014;-65
2021/03/11 09:12:14;;;;;;;7.70;2.00;;;22.90;99.90;;;;;;6308348;22;20048;-65
2021/03/11 09:14:54;;;;;;;9.10;1.92;;;22.90;99.90;;;;;;6332536;22;20004;-65
2021/03/11 09:17:26;;;;;;;9.80;2.17;;;22.90;99.90;;;;;;6308457;22;20003;-65
2021/03/11 09:20:23;;;;;;;11.25;2.60;;;22.90;99.90;;;;;;6308629;22;19996;-65
2021/03/11 09:22:52;;;;;;;10.52;2.25;;;22.90;99.90;;;;;;6307752;22;20539;-65
2021/03/11 09:25:24;;;;;;;7.25;1.77;;;22.90;99.90;;;;;;6309253;22;20055;-65
2021/03/11 09:28:09;;;;;;;10.13;2.15;;;22.90;99.90;;;;;;6333296;22;20000;-65
2021/03/11 09:30:44;;;;;;;9.43;2.38;;;23.00;99.90;;;;;;6308308;22;20003;-64
2021/03/11 09:33:21;;;;;;;9.45;2.35;;;23.00;99.90;;;;;;6332724;22;20066;-65
2021/03/11 09:35:49;;;;;;;7.80;2.40;;;23.00;99.90;;;;;;6308212;22;19999;-65
2021/03/11 09:38:27;;;;;;;12.13;2.40;;;23.00;99.90;;;;;;6307679;22;20023;-61
2021/03/11 09:40:58;;;;;;;14.15;2.35;;;23.00;99.90;;;;;;6309002;22;20051;-64
2021/03/11 09:43:36;;;;;;;12.38;2.40;;;23.00;99.90;;;;;;6310018;22;20052;-63
2021/03/11 09:46:12;;;;;;;9.50;1.83;;;23.00;99.90;;;;;;6309341;22;20003;-62
2021/03/11 09:48:44;;;;;;;10.05;2.65;;;23.00;99.90;;;;;;6310405;22;19999;-64
2021/03/11 09:51:14;;;;;;;14.63;3.25;;;23.00;99.90;;;;;;6309321;22;20400;-63
2021/03/11 09:53:44;;;;;;;11.57;2.83;;;23.00;99.90;;;;;;6309497;22;20140;-63
2021/03/11 09:56:17;;;;;;;10.15;2.53;;;23.00;99.90;;;;;;6333381;22;20033;-63
2021/03/11 09:58:52;;;;;;;11.40;2.33;;;23.00;99.90;;;;;;6309374;22;19995;-64
2021/03/11 10:01:23;;;;;;;15.15;3.47;;;23.00;99.90;;;;;;6307607;22;20318;-64
2021/03/11 10:03:51;;;;;;;10.75;2.60;;;22.90;99.90;;;;;;6332639;22;20026;-64
2021/03/11 10:06:20;;;;;;;9.77;2.13;;;22.90;99.90;;;;;;6306225;22;20333;-64
2021/03/11 10:08:47;;;;;;;16.48;2.90;;;22.90;99.90;;;;;;6306717;22;20759;-65
2021/03/11 10:11:20;;;;;;;15.55;3.15;;;22.80;99.90;;;;;;6306691;22;20013;-65
2021/03/11 10:13:53;;;;;;;9.85;2.45;;;22.80;99.90;;;;;;6307697;22;20417;-64
2021/03/11 10:16:40;;;;;;;11.38;2.00;;;22.70;99.90;;;;;;6307546;22;20337;-65
2021/03/11 10:19:14;;;;;;;8.18;2.83;;;22.60;99.90;;;;;;6310109;22;20003;-65
2021/03/11 10:22:04;;;;;;;;;;;22.60;99.90;;;;;;6314003;22;20096;-65
2021/03/11 10:24:36;;;;;;;10.10;2.95;;;22.60;99.90;;;;;;6309079;22;19898;-65
2021/03/11 10:27:06;;;;;;;12.40;2.78;;;22.60;99.90;;;;;;6316410;22;20007;-64
2021/03/11 10:29:34;;;;;;;17.15;3.70;;;22.60;99.90;;;;;;6317356;22;20003;-64
2021/03/11 10:32:06;;;;;;;9.50;2.78;;;22.60;99.90;;;;;;6315373;22;20046;-64
2021/03/11 10:34:49;;;;;;;20.77;3.33;;;22.50;99.90;;;;;;6310578;22;20069;-64
2021/03/11 10:37:30;;;;;;;14.63;3.58;;;22.50;99.90;;;;;;6310372;22;20357;-64
2021/03/11 10:40:04;;;;;;;9.80;2.75;;;22.50;99.90;;;;;;6312158;22;20037;-64
2021/03/11 10:42:45;;;;;;;13.52;3.58;;;22.50;99.90;;;;;;6309842;22;20262;-64
2021/03/11 10:45:18;;;;;;;13.18;3.15;;;22.50;99.90;;;;;;6311777;22;19999;-64
2021/03/11 10:48:07;;;;;;;13.40;3.05;;;22.50;99.90;;;;;;6309026;22;20056;-62
2021/03/11 10:50:45;;;;;;;12.35;3.00;;;22.50;99.90;;;;;;6308740;22;20057;-64
2021/03/11 10:53:14;;;;;;;15.18;3.10;;;22.40;99.90;;;;;;6310469;22;20430;-64
2021/03/11 10:55:43;;;;;;;13.32;3.53;;;22.40;99.90;;;;;;6309486;22;20058;-63
2021/03/11 10:58:27;;;;;;;13.85;3.05;;;22.30;99.90;;;;;;6309244;22;20007;-63
2021/03/11 11:01:17;;;;;;;12.07;2.78;;;22.40;99.90;;;;;;6308816;22;20015;-64
2021/03/11 11:03:45;;;;;;;13.07;2.40;;;22.30;99.90;;;;;;6310401;22;19995;-64
2021/03/11 11:06:13;;;;;;;11.20;3.10;;;22.30;99.90;;;;;;6308145;22;20003;-63
2021/03/11 11:08:45;;;;;;;12.32;2.72;;;22.30;99.90;;;;;;6308060;22;20010;-64
2021/03/11 11:11:14;;;;;;;11.93;2.70;;;22.20;99.90;;;;;;6308380;22;20007;-63
2021/03/11 11:13:41;;;;;;;13.20;3.35;;;22.20;99.90;;;;;;6308796;22;19999;-64
2021/03/11 11:16:09;;;;;;;11.68;3.33;;;22.20;99.90;;;;;;6307269;22;20003;-63
2021/03/11 11:18:36;;;;;;;11.18;2.83;;;22.10;99.90;;;;;;6308381;22;20007;-64
2021/03/11 11:21:04;;;;;;;8.10;2.65;;;22.10;99.90;;;;;;6308235;22;20027;-64
2021/03/11 11:23:32;;;;;;;12.95;3.25;;;22.00;99.90;;;;;;6307728;22;19999;-64
2021/03/11 11:25:59;;;;;;;12.40;3.00;;;22.00;99.90;;;;;;6307786;22;20005;-64
2021/03/11 11:28:27;;;;;;;12.07;2.65;;;21.90;99.90;;;;;;6308240;22;20003;-64
2021/03/11 11:30:54;;;;;;;12.32;3.42;;;21.90;99.90;;;;;;6307450;22;20654;-64
2021/03/11 11:33:21;;;;;;;11.35;3.40;;;21.90;99.90;;;;;;6308144;22;20034;-64
2021/03/11 11:35:51;;;;;;;11.10;2.83;;;21.90;99.90;;;;;;6308144;22;19999;-64
2021/03/11 11:38:19;;;;;;;16.83;4.30;;;21.90;99.90;;;;;;6308249;22;20307;-64
2021/03/11 11:40:46;;;;;;;11.90;3.22;;;21.90;99.90;;;;;;6307290;22;20010;-64
2021/03/11 11:43:14;;;;;;;12.23;3.30;;;21.90;99.90;;;;;;6330926;22;20003;-64
2021/03/11 11:45:41;;;;;;;11.60;3.22;;;21.90;99.90;;;;;;6305769;22;20079;-65
2021/03/11 11:48:09;;;;;;;13.07;3.80;;;21.90;99.90;;;;;;6305373;22;20003;-64
2021/03/11 11:50:37;;;;;;;10.20;2.80;;;21.80;99.90;;;;;;6307843;22;20006;-64
2021/03/11 11:53:04;;;;;;;13.30;3.40;;;21.80;99.90;;;;;;6307782;22;20084;-64
2021/03/11 11:55:31;;;;;;;18.85;3.72;;;21.80;99.90;;;;;;6307612;22;20026;-63
2021/03/11 11:57:58;;;;;;;17.45;4.10;;;21.80;99.90;;;;;;6332312;22;20010;-64
2021/03/11 12:00:26;;;;;;;13.52;2.95;;;21.80;99.90;;;;;;6308490;22;20039;-63
2021/03/11 12:02:54;;;;;;;8.70;3.00;;;21.80;99.90;;;;;;6307945;22;19996;-64
2021/03/11 12:05:21;;;;;;;12.85;3.08;;;21.80;99.90;;;;;;6308782;22;20003;-63
2021/03/11 12:07:48;;;;;;;13.50;3.30;;;21.80;99.90;;;;;;6308407;22;20006;-64
2021/03/11 12:10:17;;;;;;;13.48;4.13;;;21.80;99.90;;;;;;6308102;22;20334;-64
2021/03/11 12:12:44;;;;;;;12.52;3.90;;;21.80;99.90;;;;;;6307118;22;19999;-64
2021/03/11 12:15:12;;;;;;;12.38;3.42;;;21.80;99.90;;;;;;6307434;22;20006;-64
2021/03/11 12:17:39;;;;;;;15.52;3.90;;;21.80;99.90;;;;;;6308430;22;19995;-63
2021/03/11 12:20:07;;;;;;;12.85;4.03;;;21.90;99.90;;;;;;6308802;22;20071;-64
2021/03/11 12:22:34;;;;;;;14.80;4.05;;;21.90;99.90;;;;;;6308214;22;20444;-63
2021/03/11 12:25:02;;;;;;;9.35;3.13;;;21.90;99.90;;;;;;6307868;22;19999;-63
2021/03/11 12:27:29;;;;;;;14.40;3.75;;;21.90;99.90;;;;;;6307911;22;20370;-63
2021/03/11 12:29:56;;;;;;;14.50;3.15;;;21.90;99.90;;;;;;6307553;22;20010;-64
2021/03/11 12:32:24;;;;;;;13.43;3.70;;;21.90;99.90;;;;;;6308695;22;20036;-63
2021/03/11 12:34:51;;;;;;;10.75;3.58;;;21.90;99.90;;;;;;6333021;22;20464;-64
2021/03/11 12:37:18;;;;;;;11.82;3.90;;;21.80;99.90;;;;;;6308641;22;20049;-64
2021/03/11 12:39:45;;;;;;;13.30;3.72;;;21.90;99.90;;;;;;6307835;22;20330;-64
2021/03/11 12:42:13;;;;;;;14.18;4.03;;;21.90;99.90;;;;;;6305464;22;20004;-63
2021/03/11 12:44:40;;;;;;;14.60;3.17;;;21.90;99.90;;;;;;6308287;22;20448;-64
2021/03/11 12:47:08;;;;;;;12.93;2.92;;;21.90;99.90;;;;;;6307883;22;20002;-64
2021/03/11 12:49:35;;;;;;;13.90;3.70;;;21.90;99.90;;;;;;6332656;22;20015;-63
2021/03/11 12:52:02;;;;;;;11.07;3.67;;;21.90;99.90;;;;;;6307378;22;20011;-63
2021/03/11 12:54:30;;;;;;;13.27;3.25;;;21.90;99.90;;;;;;6308754;22;20058;-64
2021/03/11 12:56:57;;;;;;;9.80;3.25;;;21.90;99.90;;;;;;6307615;22;20018;-64
2021/03/11 12:59:24;;;;;;;12.43;4.03;;;21.90;99.90;;;;;;6308856;22;19999;-64
2021/03/11 13:01:51;;;;;;;10.43;2.80;;;21.80;99.90;;;;;;6308382;22;20422;-64